Time;durP1;ratioP1;P1;durP2;ratioP2;P2;SDS_P1;SDS_P2;PMS_P1;PMS_P2;Temp;Humidity;BMP_temperature;BMP_pressure;BME280_temperature;BME280_humidity;BME280_pressure;Samples;Min_cycle;Max_cycle;Signal;HPM_P1;HPM_P2
2021/12/31 00:01:56;;;;;;;;;;;;;;;16.18;70.70;101440.59;5144903;27;26588;-79
2021/12/31 00:04:22;;;;;;;;;;;;;;;16.19;71.08;101442.28;5145321;27;26882;-79
2021/12/31 00:06:47;;;;;;;;;;;;;;;16.21;70.79;101443.06;5145453;27;26873;-79
2021/12/31 00:09:12;;;;;;;;;;;;;;;16.21;71.22;101440.47;5144303;27;26849;-79
2021/12/31 00:11:38;;;;;;;;;;;;;;;16.19;71.09;101438.84;5144324;27;27602;-79
2021/12/31 00:14:03;;;;;;;;;;;;;;;16.20;71.24;101440.50;5143744;27;26772;-79
2021/12/31 00:16:28;;;;;;;;;;;;;;;16.18;71.31;101440.59;5143843;27;26842;-79
2021/12/31 00:18:53;;;;;;;;;;;;;;;16.17;71.15;101428.47;5144699;27;26962;-79
2021/12/31 00:21:19;;;;;;;;;;;;;;;16.18;71.32;101437.13;5148487;27;27067;-79
2021/12/31 00:23:45;;;;;;;;;;;;;;;16.18;71.31;101435.38;5146700;27;26849;-79
2021/12/31 00:26:10;;;;;;;;;;;;;;;16.18;71.45;101435.38;5143133;27;27037;-79
2021/12/31 00:28:36;;;;;;;;;;;;;;;16.18;71.15;101434.53;5143735;27;27220;-79
2021/12/31 00:31:01;;;;;;;;;;;;;;;16.18;71.41;101435.38;5143855;27;27095;-79
2021/12/31 00:33:26;;;;;;;;;;;;;;;16.21;71.27;101430.03;5143064;27;26791;-79
2021/12/31 00:35:52;;;;;;;;;;;;;;;16.18;71.48;101424.09;5145079;27;55730;-80
2021/12/31 00:38:17;;;;;;;;;;;;;;;16.18;71.12;101434.53;5145245;27;26889;-79
2021/12/31 00:40:42;;;;;;;;;;;;;;;16.16;71.03;101437.19;5139598;27;27151;-80
2021/12/31 00:43:10;;;;;;;;;;;;;;;16.19;71.40;101437.09;5138653;27;26852;-80
2021/12/31 00:45:38;;;;;;;;;;;;;;;16.21;71.32;101440.47;5143024;27;26955;-79
2021/12/31 00:48:04;;;;;;;;;;;;;;;16.21;71.50;101431.78;5145118;27;26892;-79
2021/12/31 00:50:29;;;;;;;;;;;;;;;16.23;71.08;101449.06;5142814;27;26893;-79
2021/12/31 00:52:54;;;;;;;;;;;;;;;16.24;71.46;101439.50;5141671;27;54369;-79
2021/12/31 00:55:19;;;;;;;;;;;;;;;16.21;71.10;101445.69;5141234;27;26901;-80
2021/12/31 00:57:44;;;;;;;;;;;;;;;16.23;71.71;101446.47;5139547;27;28272;-80
2021/12/31 01:00:12;;;;;;;;;;;;;;;16.22;71.08;101442.19;5141850;27;27061;-79
2021/12/31 01:02:38;;;;;;;;;;;;;;;16.21;71.10;101445.69;5142694;27;26792;-79
2021/12/31 01:05:04;;;;;;;;;;;;;;;16.22;70.97;101452.59;5141103;27;26949;-80
2021/12/31 01:07:29;;;;;;;;;;;;;;;16.23;71.70;101451.66;5138850;27;26728;-79
2021/12/31 01:09:55;;;;;;;;;;;;;;;16.22;71.07;101451.75;5138908;27;36753;-79
2021/12/31 01:12:20;;;;;;;;;;;;;;;16.22;71.61;101452.59;5138325;27;26888;-79
2021/12/31 01:15:05;;;;;;;;;;;;;;;16.24;71.18;101457.72;5141730;27;26722;-79
2021/12/31 01:17:46;;;;;;;;;;;;;;;16.20;71.14;101459.59;5145110;27;26788;-79
2021/12/31 01:20:12;;;;;;;;;;;;;;;16.20;71.42;101464.81;5144689;27;26808;-79
2021/12/31 01:22:38;;;;;;;;;;;;;;;16.20;71.25;101459.59;5144708;27;27107;-79
2021/12/31 01:25:04;;;;;;;;;;;;;;;16.19;71.25;101457.94;5143088;27;26842;-79
2021/12/31 01:27:30;;;;;;;;;;;;;;;16.18;71.18;101466.66;5142530;27;26905;-79
2021/12/31 01:29:55;;;;;;;;;;;;;;;16.16;71.25;101463.25;5142534;27;27386;-79
2021/12/31 01:32:20;;;;;;;;;;;;;;;16.15;71.33;101458.97;5142228;27;26798;-79
2021/12/31 01:34:45;;;;;;;;;;;;;;;16.15;71.57;101461.56;5141861;27;41180;-80
2021/12/31 01:37:11;;;;;;;;;;;;;;;16.15;71.43;101466.78;5139526;27;26510;-79
2021/12/31 01:39:36;;;;;;;;;;;;;;;16.14;71.71;101462.47;5139079;27;26781;-80
2021/12/31 01:42:03;;;;;;;;;;;;;;;16.14;71.40;101465.06;5139209;27;26963;-80
2021/12/31 01:44:36;;;;;;;;;;;;;;;16.14;71.96;101465.06;5140360;27;26929;-79
2021/12/31 01:47:05;;;;;;;;;;;;;;;16.12;71.52;101469.47;5142878;27;26917;-79
2021/12/31 01:49:34;;;;;;;;;;;;;;;16.10;71.82;101457.41;5142533;27;27065;-78
2021/12/31 01:52:00;;;;;;;;;;;;;;;16.07;71.53;101458.38;5143517;27;26975;-79
2021/12/31 01:54:26;;;;;;;;;;;;;;;16.10;71.87;101473.06;5144689;27;26802;-79
2021/12/31 01:56:52;;;;;;;;;;;;;;;16.07;71.21;101468.81;5144683;27;26705;-80
2021/12/31 01:59:17;;;;;;;;;;;;;;;16.10;71.25;101467.84;5147392;27;26838;-79
2021/12/31 02:01:42;;;;;;;;;;;;;;;16.11;71.66;101470.41;5148638;27;26470;-80
2021/12/31 02:04:08;;;;;;;;;;;;;;;16.10;71.25;101471.28;5145994;27;27661;-79
2021/12/31 02:06:34;;;;;;;;;;;;;;;16.10;70.96;101473.91;5143271;27;26290;-79
2021/12/31 02:09:01;;;;;;;;;;;;;;;16.11;71.37;101470.41;5142848;27;26625;-78
2021/12/31 02:11:28;;;;;;;;;;;;;;;16.12;70.13;101466.88;5143048;27;26847;-79
2021/12/31 02:13:53;;;;;;;;;;;;;;;16.14;70.88;101466.81;5142770;27;27003;-78
2021/12/31 02:16:18;;;;;;;;;;;;;;;16.16;70.96;101471.06;5142656;27;26795;-78
2021/12/31 02:18:44;;;;;;;;;;;;;;;16.18;70.48;101466.66;5141338;27;51435;-79
2021/12/31 02:21:12;;;;;;;;;;;;;;;16.19;70.81;101465.75;5142525;27;26766;-79
2021/12/31 02:23:46;;;;;;;;;;;;;;;16.20;70.57;101470.03;5142037;27;26781;-80
2021/12/31 02:26:12;;;;;;;;;;;;;;;16.19;70.73;101457.94;5142083;27;26998;-80
2021/12/31 02:28:37;;;;;;;;;;;;;;;16.21;70.36;101468.28;5142092;27;26835;-80
2021/12/31 02:31:03;;;;;;;;;;;;;;;16.23;70.47;101469.09;5141438;27;26944;-79
2021/12/31 02:33:29;;;;;;;;;;;;;;;16.26;70.60;101469.81;5141318;27;26821;-80
2021/12/31 02:35:54;;;;;;;;;;;;;;;16.28;70.51;101469.75;5144603;27;26997;-79
2021/12/31 02:38:19;;;;;;;;;;;;;;;16.28;70.45;101468.00;5142861;27;55989;-78
2021/12/31 02:40:45;;;;;;;;;;;;;;;16.26;70.51;101469.81;5144487;27;26829;-78
2021/12/31 02:43:10;;;;;;;;;;;;;;;16.21;71.09;101466.53;5144954;27;34590;-78
2021/12/31 02:45:37;;;;;;;;;;;;;;;16.18;70.79;101466.66;5144889;27;26808;-78
2021/12/31 02:48:04;;;;;;;;;;;;;;;16.14;71.32;101465.06;5144973;27;26854;-78
2021/12/31 02:50:34;;;;;;;;;;;;;;;16.05;71.30;101460.19;5144646;27;26821;-78
2021/12/31 02:53:04;;;;;;;;;;;;;;;15.96;72.15;101455.31;5145029;27;26800;-78
2021/12/31 02:55:32;;;;;;;;;;;;;;;15.88;72.27;101462.56;5146291;27;26775;-78
2021/12/31 02:57:59;;;;;;;;;;;;;;;15.85;71.89;101457.47;5151670;27;27130;-78
2021/12/31 03:00:25;;;;;;;;;;;;;;;15.81;72.85;101455.88;5148384;27;26767;-78
2021/12/31 03:02:50;;;;;;;;;;;;;;;15.80;72.02;101465.44;5147351;27;26874;-78
2021/12/31 03:05:16;;;;;;;;;;;;;;;15.79;72.39;101473.31;5147845;27;26843;-78
2021/12/31 03:07:42;;;;;;;;;;;;;;;15.78;72.53;101466.41;5145791;27;27164;-78
2021/12/31 03:10:07;;;;;;;;;;;;;;;15.77;72.51;101469.91;5145512;27;26791;-78
2021/12/31 03:12:33;;;;;;;;;;;;;;;15.77;72.05;101469.91;5146147;27;26765;-78
2021/12/31 03:14:58;;;;;;;;;;;;;;;15.79;72.17;101468.09;5144743;27;47542;-78
2021/12/31 03:17:24;;;;;;;;;;;;;;;15.79;72.32;101460.28;5144963;27;26832;-79
2021/12/31 03:19:57;;;;;;;;;;;;;;;15.77;72.63;101455.16;5145416;27;26978;-78
2021/12/31 03:22:24;;;;;;;;;;;;;;;15.77;72.21;101464.72;5145886;27;26753;-78
2021/12/31 03:24:49;;;;;;;;;;;;;;;15.74;72.59;101459.63;5145021;27;27059;-78
2021/12/31 03:27:14;;;;;;;;;;;;;;;15.71;72.90;101454.53;5143300;27;57205;-78
2021/12/31 03:29:39;;;;;;;;;;;;;;;15.72;72.70;101451.00;5143594;27;54382;-79
2021/12/31 03:32:05;;;;;;;;;;;;;;;15.73;72.66;101457.91;5144672;27;57178;-78
2021/12/31 03:34:30;;;;;;;;;;;;;;;15.73;72.94;101452.69;5148408;27;26713;-78
2021/12/31 03:36:55;;;;;;;;;;;;;;;15.71;72.40;101452.75;5147807;27;52642;-79
2021/12/31 03:39:20;;;;;;;;;;;;;;;15.74;72.47;101444.84;5150003;27;26926;-79
2021/12/31 03:41:45;;;;;;;;;;;;;;;15.77;72.57;101446.47;5147773;27;56020;-79
2021/12/31 03:44:11;;;;;;;;;;;;;;;15.79;72.19;101437.69;5147235;27;26359;-79
2021/12/31 03:46:36;;;;;;;;;;;;;;;15.83;72.47;101443.63;5147618;27;26983;-79
2021/12/31 03:49:01;;;;;;;;;;;;;;;15.86;72.26;101440.91;5147111;27;26741;-79
2021/12/31 03:51:26;;;;;;;;;;;;;;;15.89;72.26;101444.28;5146192;27;44410;-79
2021/12/31 03:53:51;;;;;;;;;;;;;;;15.90;71.92;101445.13;5148071;27;27046;-79
2021/12/31 03:56:21;;;;;;;;;;;;;;;15.92;71.67;101427.69;5147053;27;26939;-79
2021/12/31 03:58:46;;;;;;;;;;;;;;;15.95;71.70;101427.56;5149034;27;26804;-79
2021/12/31 04:01:11;;;;;;;;;;;;;;;15.99;71.77;101429.16;5146416;27;56823;-79
2021/12/31 04:03:36;;;;;;;;;;;;;;;16.00;71.40;101430.88;5147595;27;53785;-80
2021/12/31 04:06:01;;;;;;;;;;;;;;;16.02;71.43;101426.44;5142422;27;56649;-80
2021/12/31 04:08:27;;;;;;;;;;;;;;;15.99;71.52;101423.94;5139459;27;46619;-80
2021/12/31 04:10:52;;;;;;;;;;;;;;;16.05;70.91;101423.69;5139266;27;55156;-80
2021/12/31 04:13:17;;;;;;;;;;;;;;;15.86;71.24;101396.63;5139108;27;54688;-80
2021/12/31 04:15:42;;;;;;;;;;;;;;;16.10;71.13;101427.00;5139223;27;56566;-81
2021/12/31 04:18:07;;;;;;;;;;;;;;;16.10;70.83;101432.19;5140043;27;26803;-80
2021/12/31 04:20:38;;;;;;;;;;;;;;;16.13;70.92;101426.88;5139166;27;38224;-81
2021/12/31 04:23:07;;;;;;;;;;;;;;;16.16;70.78;101429.34;5140060;27;26839;-80
2021/12/31 04:25:32;;;;;;;;;;;;;;;16.12;69.47;101414.72;5139741;27;26828;-81
2021/12/31 04:27:57;;;;;;;;;;;;;;;16.15;69.98;101425.06;5139515;27;54468;-81
2021/12/31 04:30:22;;;;;;;;;;;;;;;16.17;70.08;101422.38;5141232;27;34446;-80
2021/12/31 04:32:48;;;;;;;;;;;;;;;16.19;70.42;101420.59;5140094;27;26850;-80
2021/12/31 04:35:13;;;;;;;;;;;;;;;16.19;70.16;101431.88;5139424;27;37941;-80
2021/12/31 04:37:39;;;;;;;;;;;;;;;16.21;70.25;101424.81;5139545;27;29828;-80
2021/12/31 04:40:08;;;;;;;;;;;;;;;16.18;69.60;101430.16;5139572;27;26775;-80
2021/12/31 04:42:33;;;;;;;;;;;;;;;16.18;69.75;101424.94;5139140;27;26825;-80
2021/12/31 04:44:58;;;;;;;;;;;;;;;16.18;69.24;101424.09;5138372;27;52057;-80
2021/12/31 04:47:23;;;;;;;;;;;;;;;16.18;69.44;101429.31;5137704;27;54979;-80
2021/12/31 04:49:49;;;;;;;;;;;;;;;16.17;69.49;101425.84;5138549;27;50328;-80
2021/12/31 04:52:14;;;;;;;;;;;;;;;16.18;69.80;101419.75;5139059;27;55045;-80
2021/12/31 04:54:39;;;;;;;;;;;;;;;16.18;70.06;101419.75;5138640;27;46512;-80
2021/12/31 04:57:04;;;;;;;;;;;;;;;16.19;69.81;101411.03;5139121;27;28241;-80
2021/12/31 04:59:30;;;;;;;;;;;;;;;16.17;69.41;101409.34;5139132;27;26836;-80
2021/12/31 05:01:55;;;;;;;;;;;;;;;16.14;68.89;101417.31;5139023;27;26972;-80
2021/12/31 05:04:20;;;;;;;;;;;;;;;16.13;69.56;101411.22;5139357;27;27005;-80
2021/12/31 05:06:48;;;;;;;;;;;;;;;16.14;69.88;101407.72;5139330;27;26964;-80
2021/12/31 05:09:14;;;;;;;;;;;;;;;16.11;69.56;101412.22;5138621;27;27174;-81
2021/12/31 05:11:39;;;;;;;;;;;;;;;16.09;69.69;101420.06;5137099;27;55114;-80
2021/12/31 05:14:04;;;;;;;;;;;;;;;16.07;70.04;101421.91;5139048;27;27978;-80
2021/12/31 05:16:30;;;;;;;;;;;;;;;16.04;69.94;101427.25;5142102;27;26775;-79
2021/12/31 05:18:55;;;;;;;;;;;;;;;16.01;69.98;101416.91;5142207;27;26723;-80
2021/12/31 05:21:20;;;;;;;;;;;;;;;15.98;69.66;101421.38;5140634;27;44941;-80
2021/12/31 05:23:45;;;;;;;;;;;;;;;15.95;69.80;101423.22;5140849;27;56328;-79
2021/12/31 05:26:11;;;;;;;;;;;;;;;15.94;70.11;101425.84;5141236;27;54035;-79
2021/12/31 05:28:36;;;;;;;;;;;;;;;15.92;70.24;101423.31;5143012;27;26748;-80
2021/12/31 05:31:01;;;;;;;;;;;;;;;15.91;69.96;101416.41;5143157;27;26882;-80
2021/12/31 05:33:26;;;;;;;;;;;;;;;15.91;70.28;101411.19;5142243;27;26784;-80
2021/12/31 05:35:52;;;;;;;;;;;;;;;15.89;69.98;101414.78;5142540;27;54464;-80
2021/12/31 05:38:17;;;;;;;;;;;;;;;15.90;69.90;101413.84;5144154;27;26917;-80
2021/12/31 05:40:42;;;;;;;;;;;;;;;15.88;70.10;101413.94;5141934;27;55350;-79
2021/12/31 05:43:07;;;;;;;;;;;;;;;15.90;70.22;101400.81;5143065;27;33947;-79
2021/12/31 05:45:32;;;;;;;;;;;;;;;15.89;69.83;101406.97;5142955;27;26772;-79
2021/12/31 05:47:57;;;;;;;;;;;;;;;15.88;69.96;101400.03;5121857;27;56262;-80
2021/12/31 05:50:28;;;;;;;;;;;;;;;15.89;70.37;101391.31;5141962;27;26908;-79
2021/12/31 05:52:54;;;;;;;;;;;;;;;15.90;69.86;101387.78;5142004;27;27101;-80
2021/12/31 05:55:20;;;;;;;;;;;;;;;15.89;70.13;101386.13;5141941;27;26904;-79
2021/12/31 05:57:45;;;;;;;;;;;;;;;15.86;69.91;101391.41;5140799;27;56423;-80
2021/12/31 06:00:10;;;;;;;;;;;;;;;15.85;69.98;101379.31;5142539;27;53798;-79
2021/12/31 06:02:35;;;;;;;;;;;;;;;15.84;70.07;101377.63;5145120;27;26833;-79
2021/12/31 06:05:01;;;;;;;;;;;;;;;15.83;70.14;101386.31;5145195;27;26930;-80
2021/12/31 06:07:26;;;;;;;;;;;;;;;15.82;70.02;101390.69;5143280;27;48745;-79
2021/12/31 06:09:51;;;;;;;;;;;;;;;15.82;70.30;101379.44;5144694;27;53505;-79
2021/12/31 06:12:16;;;;;;;;;;;;;;;15.78;69.70;101383.06;5144748;27;49397;-80
2021/12/31 06:14:41;;;;;;;;;;;;;;;15.80;70.10;101381.25;5144773;27;51050;-79
2021/12/31 06:17:08;;;;;;;;;;;;;;;15.79;69.93;101382.13;5144497;27;27810;-79
2021/12/31 06:19:34;;;;;;;;;;;;;;;15.81;69.90;101382.94;5144244;27;27092;-79
2021/12/31 06:21:59;;;;;;;;;;;;;;;15.80;69.95;101386.44;5144576;27;27052;-80
2021/12/31 06:24:24;;;;;;;;;;;;;;;15.76;70.06;101384.88;5144107;27;26862;-80
2021/12/31 06:26:49;;;;;;;;;;;;;;;15.76;70.05;101384.88;5143229;27;55813;-79
2021/12/31 06:29:14;;;;;;;;;;;;;;;15.76;69.88;101384.88;5143154;27;49159;-79
2021/12/31 06:31:40;;;;;;;;;;;;;;;15.74;69.25;101389.28;5143385;27;45171;-79
2021/12/31 06:34:05;;;;;;;;;;;;;;;15.72;69.91;101378.06;5143684;27;53707;-79
2021/12/31 06:36:30;;;;;;;;;;;;;;;15.67;69.55;101386.03;5144638;27;56846;-79
2021/12/31 06:38:57;;;;;;;;;;;;;;;15.67;69.72;101382.63;5147495;27;42620;-80
2021/12/31 06:41:22;;;;;;;;;;;;;;;15.66;69.60;101391.31;5153431;27;26659;-80
2021/12/31 06:43:47;;;;;;;;;;;;;;;15.64;69.74;101370.53;5148723;27;54956;-80
2021/12/31 06:46:13;;;;;;;;;;;;;;;15.62;69.58;101371.50;5144036;27;27011;-79
2021/12/31 06:48:38;;;;;;;;;;;;;;;15.60;69.74;101368.09;5143700;27;26855;-80
2021/12/31 06:51:03;;;;;;;;;;;;;;;15.57;69.82;101363.00;5140208;27;26839;-80
2021/12/31 06:53:28;;;;;;;;;;;;;;;15.56;70.07;101356.13;5138464;27;55125;-80
2021/12/31 06:55:53;;;;;;;;;;;;;;;15.54;69.75;101347.50;5138569;27;56087;-81
2021/12/31 06:58:18;;;;;;;;;;;;;;;15.50;70.04;101353.72;5138048;27;55270;-81
2021/12/31 07:00:44;;;;;;;;;;;;;;;15.48;70.06;101359.78;5138340;27;55191;-80
2021/12/31 07:03:10;;;;;;;;;;;;;;;15.49;69.96;101355.47;5137876;27;55023;-81
2021/12/31 07:05:36;;;;;;;;;;;;;;;15.48;69.67;101353.75;5138506;27;27439;-80
2021/12/31 07:08:01;;;;;;;;;;;;;;;15.51;70.01;101355.44;5138204;27;27153;-80
2021/12/31 07:10:27;;;;;;;;;;;;;;;15.51;69.87;101350.22;5138027;27;27508;-80
2021/12/31 07:12:56;;;;;;;;;;;;;;;15.51;69.88;101351.06;5138489;27;26988;-80
2021/12/31 07:15:21;;;;;;;;;;;;;;;15.45;69.54;101365.13;5138565;27;26847;-80
2021/12/31 07:17:47;;;;;;;;;;;;;;;15.50;69.68;101351.13;5140326;27;27077;-81
2021/12/31 07:20:12;;;;;;;;;;;;;;;15.52;69.93;101357.13;5140732;27;26938;-81
2021/12/31 07:22:38;;;;;;;;;;;;;;;15.55;69.77;101364.81;5141266;27;31362;-80
2021/12/31 07:25:03;;;;;;;;;;;;;;;15.56;69.75;101361.31;5141428;27;26907;-81
2021/12/31 07:27:31;;;;;;;;;;;;;;;15.57;69.58;101360.41;5141639;27;26755;-80
2021/12/31 07:29:57;;;;;;;;;;;;;;;15.59;69.48;101361.22;5140838;27;27022;-80
2021/12/31 07:32:22;;;;;;;;;;;;;;;15.63;69.75;101368.00;5140405;27;42092;-80
2021/12/31 07:34:47;;;;;;;;;;;;;;;15.67;69.48;101367.00;5140322;27;48301;-80
2021/12/31 07:37:12;;;;;;;;;;;;;;;15.70;69.50;101372.06;5139946;27;52973;-81
2021/12/31 07:39:45;;;;;;;;;;;;;;;15.73;69.39;101374.56;5140734;27;56665;-80
2021/12/31 07:42:10;;;;;;;;;;;;;;;15.74;69.19;101371.06;5141238;27;26905;-80
2021/12/31 07:44:36;;;;;;;;;;;;;;;15.76;69.17;101374.44;5139963;27;56555;-81
2021/12/31 07:47:01;;;;;;;;;;;;;;;15.77;68.82;101383.97;5139954;27;53442;-81
2021/12/31 07:49:26;;;;;;;;;;;;;;;15.77;68.65;101381.34;5140503;27;27802;-80
2021/12/31 07:51:51;;;;;;;;;;;;;;;15.78;68.46;101388.28;5140685;27;26776;-81
2021/12/31 07:54:16;;;;;;;;;;;;;;;15.79;68.66;101389.94;5139797;27;55809;-81
2021/12/31 07:56:41;;;;;;;;;;;;;;;15.81;68.90;101401.19;5140229;27;48364;-81
2021/12/31 07:59:07;;;;;;;;;;;;;;;15.82;68.67;101389.88;5142314;27;56739;-81
2021/12/31 08:01:33;;;;;;;;;;;;;;;15.83;68.47;101396.75;5139127;27;54031;-81
2021/12/31 08:03:58;;;;;;;;;;;;;;;15.81;68.50;101393.38;5139977;27;27196;-80
2021/12/31 08:06:23;;;;;;;;;;;;;;;15.83;68.27;101383.72;5140395;27;26773;-81
2021/12/31 08:08:48;;;;;;;;;;;;;;;15.81;68.23;101399.44;5138367;27;55306;-80
2021/12/31 08:11:13;;;;;;;;;;;;;;;15.79;68.07;101400.38;5138552;27;55014;-81
2021/12/31 08:13:39;;;;;;;;;;;;;;;15.79;68.39;101401.22;5139217;27;42054;-80
2021/12/31 08:16:04;;;;;;;;;;;;;;;15.76;67.18;101400.50;5138121;27;54003;-80
2021/12/31 08:18:32;;;;;;;;;;;;;;;15.77;67.56;101402.19;5139197;27;26957;-81
2021/12/31 08:20:57;;;;;;;;;;;;;;;15.75;68.21;101406.59;5139279;27;26502;-79
2021/12/31 08:23:22;;;;;;;;;;;;;;;15.73;67.90;101418.84;5137733;27;55408;-80
2021/12/31 08:25:47;;;;;;;;;;;;;;;15.71;67.59;101412.84;5140449;27;26342;-79
2021/12/31 08:28:13;;;;;;;;;;;;;;;15.69;67.47;101399.03;5140372;27;26763;-79
2021/12/31 08:30:38;;;;;;;;;;;;;;;15.66;67.71;101405.19;5140326;27;26792;-79
2021/12/31 08:33:03;;;;;;;;;;;;;;;15.61;67.60;101395.84;5141430;27;27636;-80
2021/12/31 08:35:28;;;;;;;;;;;;;;;15.66;67.62;101388.72;5140689;27;26803;-79
2021/12/31 08:37:54;;;;;;;;;;;;;;;15.62;67.76;101384.53;5140351;27;27031;-79
2021/12/31 08:40:20;;;;;;;;;;;;;;;15.58;67.32;101380.34;5140815;27;26798;-79
2021/12/31 08:42:45;;;;;;;;;;;;;;;15.55;67.04;101378.69;5140628;27;26567;-79
2021/12/31 08:45:11;;;;;;;;;;;;;;;15.53;67.33;101382.25;5139938;27;26730;-79
2021/12/31 08:47:37;;;;;;;;;;;;;;;15.24;67.49;101339.88;5139844;27;27108;-79
2021/12/31 08:50:02;;;;;;;;;;;;;;;15.41;67.06;101379.13;5139467;27;27128;-79
2021/12/31 08:52:27;;;;;;;;;;;;;;;15.43;67.72;101382.56;5138650;27;26938;-79
2021/12/31 08:54:53;;;;;;;;;;;;;;;15.43;67.90;101387.75;5138450;27;55335;-80
2021/12/31 08:57:18;;;;;;;;;;;;;;;15.42;67.86;101390.41;5138602;27;26912;-79
2021/12/31 08:59:43;;;;;;;;;;;;;;;15.42;68.27;101391.25;5139453;27;43029;-79
2021/12/31 09:02:08;;;;;;;;;;;;;;;15.40;67.86;101390.47;5139837;27;27674;-79
2021/12/31 09:04:34;;;;;;;;;;;;;;;15.40;67.91;101387.03;5139935;27;27129;-79
2021/12/31 09:06:59;;;;;;;;;;;;;;;15.41;67.47;101384.34;5139265;27;26921;-81
2021/12/31 09:09:24;;;;;;;;;;;;;;;15.38;67.52;101379.25;5138770;27;26836;-80
2021/12/31 09:11:50;;;;;;;;;;;;;;;15.39;67.80;101391.38;5138139;27;41968;-80
2021/12/31 09:14:15;;;;;;;;;;;;;;;15.39;68.02;101391.38;5138604;27;26854;-80
2021/12/31 09:16:45;;;;;;;;;;;;;;;15.39;67.91;101407.00;5137990;27;55128;-80
2021/12/31 09:19:10;;;;;;;;;;;;;;;15.39;68.24;101400.94;5138931;27;27011;-80
2021/12/31 09:21:35;;;;;;;;;;;;;;;15.38;67.78;101407.03;5138990;27;39310;-80
2021/12/31 09:24:00;;;;;;;;;;;;;;;15.40;67.51;101403.50;5139165;27;53519;-80
2021/12/31 09:26:26;;;;;;;;;;;;;;;15.43;67.60;101408.59;5138877;27;56524;-80
2021/12/31 09:28:51;;;;;;;;;;;;;;;15.41;67.83;101399.97;5138825;27;26900;-80
2021/12/31 09:31:16;;;;;;;;;;;;;;;15.39;67.12;101396.59;5137481;27;56989;-80
2021/12/31 09:33:41;;;;;;;;;;;;;;;15.42;67.19;101398.22;5138771;27;54143;-80
2021/12/31 09:36:06;;;;;;;;;;;;;;;15.42;67.09;101406.88;5142104;27;31468;-80
2021/12/31 09:38:31;;;;;;;;;;;;;;;15.37;66.80;101408.78;5141765;27;26733;-80
2021/12/31 09:40:57;;;;;;;;;;;;;;;15.41;67.06;101404.31;5146694;27;26773;-80
2021/12/31 09:43:22;;;;;;;;;;;;;;;15.43;67.29;101392.97;5142681;27;26924;-80
2021/12/31 09:45:49;;;;;;;;;;;;;;;15.42;67.55;101388.66;5141382;27;27143;-81
2021/12/31 09:48:16;;;;;;;;;;;;;;;15.46;67.36;101395.47;5140914;27;26956;-81
2021/12/31 09:50:43;;;;;;;;;;;;;;;15.51;67.44;101404.91;5140271;27;26973;-80
2021/12/31 09:53:09;;;;;;;;;;;;;;;15.54;67.58;101423.84;5141589;27;26977;-79
2021/12/31 09:55:38;;;;;;;;;;;;;;;15.57;67.52;101421.13;5146034;27;27554;-79
2021/12/31 09:58:04;;;;;;;;;;;;;;;15.56;67.28;101423.81;5145527;27;26935;-79
2021/12/31 10:00:29;;;;;;;;;;;;;;;15.59;66.99;101426.31;5145478;27;26984;-79
2021/12/31 10:03:11;;;;;;;;;;;;;;;15.63;66.95;101425.28;5146868;27;26819;-79
2021/12/31 10:05:43;;;;;;;;;;;;;;;15.64;66.53;101432.19;5145877;27;26758;-79
2021/12/31 10:08:21;;;;;;;;;;;;;;;15.67;66.95;101426.88;5146488;27;26866;-79
2021/12/31 10:11:03;;;;;;;;;;;;;;;15.68;66.14;101433.78;5146091;27;27910;-79
2021/12/31 10:13:29;;;;;;;;;;;;;;;15.66;66.68;101419.97;5146012;27;26908;-79
2021/12/31 10:15:55;;;;;;;;;;;;;;;15.65;66.44;101413.06;5145874;27;26783;-79
2021/12/31 10:18:27;;;;;;;;;;;;;;;15.53;66.70;101390.06;5145179;27;26936;-79
2021/12/31 10:20:52;;;;;;;;;;;;;;;15.63;66.92;101422.69;5144850;27;26761;-79
2021/12/31 10:23:19;;;;;;;;;;;;;;;15.65;66.46;101420.88;5144979;27;26526;-79
2021/12/31 10:25:44;;;;;;;;;;;;;;;15.62;66.17;101414.03;5145405;27;27802;-79
2021/12/31 10:28:11;;;;;;;;;;;;;;;15.65;66.34;101439.09;5145209;27;26952;-79
2021/12/31 10:30:37;;;;;;;;;;;;;;;15.70;66.55;101452.81;5144739;27;27721;-79
2021/12/31 10:33:02;;;;;;;;;;;;;;;15.71;66.86;101444.09;5144820;27;32577;-79
2021/12/31 10:35:36;;;;;;;;;;;;;;;15.73;66.68;101442.28;5145262;27;26830;-79
2021/12/31 10:38:02;;;;;;;;;;;;;;;15.75;66.61;101440.47;5144711;27;26800;-79
2021/12/31 10:40:33;;;;;;;;;;;;;;;15.75;65.90;101436.09;5143991;27;26844;-79
2021/12/31 10:43:10;;;;;;;;;;;;;;;15.74;65.97;101444.00;5144867;27;26834;-78
2021/12/31 10:45:36;;;;;;;;;;;;;;;15.72;66.05;101440.56;5143258;27;26774;-79
2021/12/31 10:48:08;;;;;;;;;;;;;;;15.71;66.22;101444.09;5145489;27;26741;-79
2021/12/31 10:50:35;;;;;;;;;;;;;;;15.71;66.45;101438.91;5145394;27;26757;-79
2021/12/31 10:53:07;;;;;;;;;;;;;;;15.69;66.42;101420.72;5145639;27;27073;-79
2021/12/31 10:55:39;;;;;;;;;;;;;;;15.69;65.96;101425.06;5144133;27;27084;-79
2021/12/31 10:58:05;;;;;;;;;;;;;;;15.70;66.36;101426.78;5146096;27;26867;-79
2021/12/31 11:00:32;;;;;;;;;;;;;;;15.73;66.65;101411.03;5144370;27;26794;-79
2021/12/31 11:02:58;;;;;;;;;;;;;;;15.74;66.40;101412.75;5144984;27;26475;-78
2021/12/31 11:05:23;;;;;;;;;;;;;;;15.76;66.16;101400.50;5143026;27;26789;-79
2021/12/31 11:07:49;;;;;;;;;;;;;;;15.78;65.88;101383.88;5143070;27;26788;-79
2021/12/31 11:10:15;;;;;;;;;;;;;;;15.78;66.25;101389.09;5143832;27;26811;-79
2021/12/31 11:12:45;;;;;;;;;;;;;;;15.81;66.31;101382.94;5142614;27;26811;-79
2021/12/31 11:15:11;;;;;;;;;;;;;;;15.83;66.46;101381.13;5148389;27;26933;-79
2021/12/31 11:17:36;;;;;;;;;;;;;;;15.84;65.71;101361.97;5148615;27;26772;-79
2021/12/31 11:20:04;;;;;;;;;;;;;;;15.85;65.84;101366.28;5148020;27;27520;-79
2021/12/31 11:22:30;;;;;;;;;;;;;;;15.87;66.04;101361.88;5147215;27;26839;-79
2021/12/31 11:25:14;;;;;;;;;;;;;;;15.86;65.76;101350.59;5146209;27;26742;-79
2021/12/31 11:27:44;;;;;;;;;;;;;;;15.84;65.75;101351.56;5144458;27;26800;-79
2021/12/31 11:30:23;;;;;;;;;;;;;;;15.83;66.08;101334.22;5143696;27;26877;-79
2021/12/31 11:32:48;;;;;;;;;;;;;;;15.83;66.00;101329.03;5143674;27;26799;-79
2021/12/31 11:35:27;;;;;;;;;;;;;;;15.78;65.58;101331.78;5142298;27;57385;-79
2021/12/31 11:37:52;;;;;;;;;;;;;;;15.75;65.80;101331.06;5142191;27;27044;-79
2021/12/31 11:40:31;;;;;;;;;;;;;;;15.74;66.26;101334.59;5142829;27;27063;-79
2021/12/31 11:43:14;;;;;;;;;;;;;;;15.73;66.48;101322.47;5143304;27;27163;-79
2021/12/31 11:45:40;;;;;;;;;;;;;;;15.75;66.68;101334.50;5142410;27;26944;-79
2021/12/31 11:48:24;;;;;;;;;;;;;;;15.76;66.57;101337.97;5141762;27;26882;-79
2021/12/31 11:51:03;;;;;;;;;;;;;;;15.78;66.10;101330.97;5140804;27;26898;-79
2021/12/31 11:53:28;;;;;;;;;;;;;;;15.79;66.43;101327.44;5142926;27;26850;-79
2021/12/31 11:55:53;;;;;;;;;;;;;;;15.80;66.00;101329.16;5140949;27;27510;-79
2021/12/31 11:58:34;;;;;;;;;;;;;;;15.82;66.75;101314.31;5144192;27;53963;-79
2021/12/31 12:01:20;;;;;;;;;;;;;;;15.87;65.97;101314.97;5141771;27;27792;-80
2021/12/31 12:03:45;;;;;;;;;;;;;;;15.84;65.69;101315.09;5139859;27;26878;-80
2021/12/31 12:06:30;;;;;;;;;;;;;;;15.91;66.76;101321.75;5140859;27;26890;-80
2021/12/31 12:08:55;;;;;;;;;;;;;;;15.94;66.49;101308.59;5139442;27;26839;-80
2021/12/31 12:11:39;;;;;;;;;;;;;;;15.98;66.50;101299.78;5140587;27;27171;-80
2021/12/31 12:14:23;;;;;;;;;;;;;;;16.00;66.36;101295.38;5141739;27;26943;-80
2021/12/31 12:16:54;;;;;;;;;;;;;;;16.03;66.47;101291.78;5140763;27;26982;-80
2021/12/31 12:19:19;;;;;;;;;;;;;;;16.03;66.07;101300.44;5140997;27;27076;-80
2021/12/31 12:21:51;;;;;;;;;;;;;;;16.06;66.04;101305.53;5140890;27;26894;-80
2021/12/31 12:24:22;;;;;;;;;;;;;;;16.10;65.62;101296.69;5141187;27;27066;-80
2021/12/31 12:26:47;;;;;;;;;;;;;;;16.13;65.30;101296.56;5139688;27;26962;-80
2021/12/31 12:29:23;;;;;;;;;;;;;;;16.14;66.06;101290.44;5139558;27;27085;-81
2021/12/31 12:32:05;;;;;;;;;;;;;;;16.14;66.20;101295.66;5138320;27;27005;-80
2021/12/31 12:34:30;;;;;;;;;;;;;;;16.07;65.70;101275.97;5138479;27;26946;-80